sensor_id;sensor_type;location;lat;lon;timestamp;P1;durP1;ratioP1;P2;durP2;ratioP2
62861;SDS011;48953;53.110;5.592;2023-04-03T00:01:44;2.45;;;1.42;;
62861;SDS011;48953;53.110;5.592;2023-04-03T00:04:10;1.88;;;1.35;;
62861;SDS011;48953;53.110;5.592;2023-04-03T00:06:36;3.72;;;1.52;;
62861;SDS011;48953;53.110;5.592;2023-04-03T00:09:02;2.28;;;1.13;;
62861;SDS011;48953;53.110;5.592;2023-04-03T00:11:28;2.35;;;1.10;;
62861;SDS011;48953;53.110;5.592;2023-04-03T00:13:55;3.00;;;1.05;;
62861;SDS011;48953;53.110;5.592;2023-04-03T00:16:21;2.28;;;1.17;;
62861;SDS011;48953;53.110;5.592;2023-04-03T00:18:47;3.88;;;1.40;;
62861;SDS011;48953;53.110;5.592;2023-04-03T00:21:13;3.47;;;1.00;;
62861;SDS011;48953;53.110;5.592;2023-04-03T00:23:40;3.50;;;1.15;;
62861;SDS011;48953;53.110;5.592;2023-04-03T00:26:06;3.20;;;0.90;;
62861;SDS011;48953;53.110;5.592;2023-04-03T00:28:32;5.63;;;1.23;;
62861;SDS011;48953;53.110;5.592;2023-04-03T00:30:58;3.50;;;1.40;;
62861;SDS011;48953;53.110;5.592;2023-04-03T00:33:24;2.13;;;0.80;;
62861;SDS011;48953;53.110;5.592;2023-04-03T00:35:50;2.08;;;0.80;;
62861;SDS011;48953;53.110;5.592;2023-04-03T00:38:19;3.08;;;0.95;;
62861;SDS011;48953;53.110;5.592;2023-04-03T00:40:46;3.95;;;0.90;;
62861;SDS011;48953;53.110;5.592;2023-04-03T00:43:17;2.15;;;1.00;;
62861;SDS011;48953;53.110;5.592;2023-04-03T00:45:44;2.20;;;0.98;;
62861;SDS011;48953;53.110;5.592;2023-04-03T00:48:15;4.32;;;0.82;;
62861;SDS011;48953;53.110;5.592;2023-04-03T00:50:42;3.83;;;1.48;;
62861;SDS011;48953;53.110;5.592;2023-04-03T00:53:11;2.40;;;1.20;;
62861;SDS011;48953;53.110;5.592;2023-04-03T00:55:38;1.13;;;0.98;;
62861;SDS011;48953;53.110;5.592;2023-04-03T00:58:05;2.17;;;1.08;;
62861;SDS011;48953;53.110;5.592;2023-04-03T01:00:32;5.60;;;1.95;;
62861;SDS011;48953;53.110;5.592;2023-04-03T01:02:58;5.57;;;1.08;;
62861;SDS011;48953;53.110;5.592;2023-04-03T01:05:25;1.67;;;1.13;;
62861;SDS011;48953;53.110;5.592;2023-04-03T01:07:53;3.63;;;1.10;;
62861;SDS011;48953;53.110;5.592;2023-04-03T01:10:19;3.63;;;1.30;;
62861;SDS011;48953;53.110;5.592;2023-04-03T01:12:48;2.75;;;1.10;;
62861;SDS011;48953;53.110;5.592;2023-04-03T01:15:16;3.08;;;1.10;;
62861;SDS011;48953;53.110;5.592;2023-04-03T01:20:24;1.25;;;1.00;;
62861;SDS011;48953;53.110;5.592;2023-04-03T01:25:37;1.35;;;1.00;;
62861;SDS011;48953;53.110;5.592;2023-04-03T01:28:05;2.30;;;1.38;;
62861;SDS011;48953;53.110;5.592;2023-04-03T01:30:33;2.40;;;1.10;;
62861;SDS011;48953;53.110;5.592;2023-04-03T01:33:00;2.20;;;1.40;;
62861;SDS011;48953;53.110;5.592;2023-04-03T01:35:26;2.38;;;1.60;;
62861;SDS011;48953;53.110;5.592;2023-04-03T01:37:52;1.40;;;1.30;;
62861;SDS011;48953;53.110;5.592;2023-04-03T01:40:18;2.00;;;1.40;;
62861;SDS011;48953;53.110;5.592;2023-04-03T01:42:44;3.67;;;1.70;;
62861;SDS011;48953;53.110;5.592;2023-04-03T01:45:10;5.05;;;1.52;;
62861;SDS011;48953;53.110;5.592;2023-04-03T01:47:36;5.97;;;1.67;;
62861;SDS011;48953;53.110;5.592;2023-04-03T01:50:02;1.60;;;1.30;;
62861;SDS011;48953;53.110;5.592;2023-04-03T01:52:28;3.47;;;1.75;;
62861;SDS011;48953;53.110;5.592;2023-04-03T01:54:55;2.20;;;1.70;;
62861;SDS011;48953;53.110;5.592;2023-04-03T01:57:21;1.88;;;1.50;;
62861;SDS011;48953;53.110;5.592;2023-04-03T01:59:47;3.28;;;1.50;;
62861;SDS011;48953;53.110;5.592;2023-04-03T02:02:27;2.85;;;1.33;;
62861;SDS011;48953;53.110;5.592;2023-04-03T02:07:20;2.20;;;1.17;;
62861;SDS011;48953;53.110;5.592;2023-04-03T02:09:46;2.28;;;1.30;;
62861;SDS011;48953;53.110;5.592;2023-04-03T02:12:12;5.80;;;2.28;;
62861;SDS011;48953;53.110;5.592;2023-04-03T02:14:38;3.70;;;1.65;;
62861;SDS011;48953;53.110;5.592;2023-04-03T02:17:04;3.30;;;1.58;;
62861;SDS011;48953;53.110;5.592;2023-04-03T02:19:33;3.00;;;1.55;;
62861;SDS011;48953;53.110;5.592;2023-04-03T02:22:00;2.70;;;1.60;;
62861;SDS011;48953;53.110;5.592;2023-04-03T02:24:27;3.58;;;1.30;;
62861;SDS011;48953;53.110;5.592;2023-04-03T02:26:53;2.00;;;1.35;;
62861;SDS011;48953;53.110;5.592;2023-04-03T02:29:19;2.97;;;1.63;;
62861;SDS011;48953;53.110;5.592;2023-04-03T02:31:45;2.05;;;1.02;;
62861;SDS011;48953;53.110;5.592;2023-04-03T02:34:11;3.53;;;1.08;;
62861;SDS011;48953;53.110;5.592;2023-04-03T02:36:37;3.53;;;1.17;;
62861;SDS011;48953;53.110;5.592;2023-04-03T02:39:03;3.58;;;1.40;;
62861;SDS011;48953;53.110;5.592;2023-04-03T02:41:29;1.63;;;1.30;;
62861;SDS011;48953;53.110;5.592;2023-04-03T02:44:00;1.63;;;1.25;;
62861;SDS011;48953;53.110;5.592;2023-04-03T02:46:27;2.00;;;0.90;;
62861;SDS011;48953;53.110;5.592;2023-04-03T02:51:22;1.75;;;1.02;;
62861;SDS011;48953;53.110;5.592;2023-04-03T02:53:49;2.03;;;1.02;;
62861;SDS011;48953;53.110;5.592;2023-04-03T02:56:15;1.38;;;0.80;;
62861;SDS011;48953;53.110;5.592;2023-04-03T02:58:42;3.67;;;0.85;;
62861;SDS011;48953;53.110;5.592;2023-04-03T03:01:08;3.00;;;1.20;;
62861;SDS011;48953;53.110;5.592;2023-04-03T03:03:34;4.15;;;1.17;;
62861;SDS011;48953;53.110;5.592;2023-04-03T03:06:10;1.83;;;0.85;;
62861;SDS011;48953;53.110;5.592;2023-04-03T03:08:37;1.98;;;0.70;;
62861;SDS011;48953;53.110;5.592;2023-04-03T03:11:03;2.75;;;1.15;;
62861;SDS011;48953;53.110;5.592;2023-04-03T03:13:30;2.13;;;1.08;;
62861;SDS011;48953;53.110;5.592;2023-04-03T03:15:56;2.38;;;1.10;;
62861;SDS011;48953;53.110;5.592;2023-04-03T03:18:22;3.45;;;1.15;;
62861;SDS011;48953;53.110;5.592;2023-04-03T03:20:52;3.22;;;0.95;;
62861;SDS011;48953;53.110;5.592;2023-04-03T03:23:18;4.97;;;1.45;;
62861;SDS011;48953;53.110;5.592;2023-04-03T03:25:44;3.53;;;1.00;;
62861;SDS011;48953;53.110;5.592;2023-04-03T03:28:10;6.47;;;1.10;;
62861;SDS011;48953;53.110;5.592;2023-04-03T03:30:49;3.50;;;1.13;;
62861;SDS011;48953;53.110;5.592;2023-04-03T03:33:15;3.67;;;1.50;;
62861;SDS011;48953;53.110;5.592;2023-04-03T03:35:42;1.95;;;0.80;;
62861;SDS011;48953;53.110;5.592;2023-04-03T03:38:08;2.25;;;1.10;;
62861;SDS011;48953;53.110;5.592;2023-04-03T03:40:34;1.63;;;0.90;;
62861;SDS011;48953;53.110;5.592;2023-04-03T03:43:00;1.80;;;1.00;;
62861;SDS011;48953;53.110;5.592;2023-04-03T03:45:26;2.70;;;0.93;;
62861;SDS011;48953;53.110;5.592;2023-04-03T03:47:52;3.30;;;1.10;;
62861;SDS011;48953;53.110;5.592;2023-04-03T03:50:18;1.58;;;1.15;;
62861;SDS011;48953;53.110;5.592;2023-04-03T03:52:44;3.08;;;1.20;;
62861;SDS011;48953;53.110;5.592;2023-04-03T03:55:10;2.63;;;1.45;;
62861;SDS011;48953;53.110;5.592;2023-04-03T03:57:36;5.22;;;1.10;;
62861;SDS011;48953;53.110;5.592;2023-04-03T04:00:02;3.33;;;0.82;;
62861;SDS011;48953;53.110;5.592;2023-04-03T04:02:29;3.05;;;1.20;;
62861;SDS011;48953;53.110;5.592;2023-04-03T04:04:55;4.13;;;1.35;;
62861;SDS011;48953;53.110;5.592;2023-04-03T04:07:21;5.70;;;1.10;;
62861;SDS011;48953;53.110;5.592;2023-04-03T04:09:48;1.77;;;0.80;;
62861;SDS011;48953;53.110;5.592;2023-04-03T04:12:15;2.13;;;0.88;;
62861;SDS011;48953;53.110;5.592;2023-04-03T04:14:41;2.17;;;1.17;;
62861;SDS011;48953;53.110;5.592;2023-04-03T04:17:07;3.35;;;1.38;;
62861;SDS011;48953;53.110;5.592;2023-04-03T04:19:33;3.35;;;1.20;;
62861;SDS011;48953;53.110;5.592;2023-04-03T04:21:59;3.47;;;1.13;;
62861;SDS011;48953;53.110;5.592;2023-04-03T04:24:25;2.17;;;1.20;;
62861;SDS011;48953;53.110;5.592;2023-04-03T04:26:51;3.75;;;1.10;;
62861;SDS011;48953;53.110;5.592;2023-04-03T04:29:17;2.90;;;1.23;;
62861;SDS011;48953;53.110;5.592;2023-04-03T04:31:43;4.82;;;1.50;;
62861;SDS011;48953;53.110;5.592;2023-04-03T04:34:09;2.65;;;1.30;;
62861;SDS011;48953;53.110;5.592;2023-04-03T04:36:35;3.72;;;1.35;;
62861;SDS011;48953;53.110;5.592;2023-04-03T04:39:01;5.53;;;1.35;;
62861;SDS011;48953;53.110;5.592;2023-04-03T04:41:27;5.25;;;1.10;;
62861;SDS011;48953;53.110;5.592;2023-04-03T04:43:53;5.72;;;1.27;;
62861;SDS011;48953;53.110;5.592;2023-04-03T04:46:19;5.43;;;1.30;;
62861;SDS011;48953;53.110;5.592;2023-04-03T04:48:45;4.90;;;1.55;;
62861;SDS011;48953;53.110;5.592;2023-04-03T04:51:11;4.45;;;1.60;;
62861;SDS011;48953;53.110;5.592;2023-04-03T04:53:37;1.55;;;1.20;;
62861;SDS011;48953;53.110;5.592;2023-04-03T04:56:04;4.10;;;1.30;;
62861;SDS011;48953;53.110;5.592;2023-04-03T04:58:30;4.15;;;1.63;;
62861;SDS011;48953;53.110;5.592;2023-04-03T05:00:59;3.05;;;1.38;;
62861;SDS011;48953;53.110;5.592;2023-04-03T05:03:25;2.60;;;1.10;;
62861;SDS011;48953;53.110;5.592;2023-04-03T05:05:51;2.65;;;1.45;;
62861;SDS011;48953;53.110;5.592;2023-04-03T05:08:17;5.13;;;1.48;;
62861;SDS011;48953;53.110;5.592;2023-04-03T05:10:44;4.75;;;1.77;;
62861;SDS011;48953;53.110;5.592;2023-04-03T05:13:10;2.78;;;1.60;;
62861;SDS011;48953;53.110;5.592;2023-04-03T05:15:36;4.18;;;1.20;;
62861;SDS011;48953;53.110;5.592;2023-04-03T05:18:02;2.85;;;1.38;;
62861;SDS011;48953;53.110;5.592;2023-04-03T05:20:29;3.42;;;1.20;;
62861;SDS011;48953;53.110;5.592;2023-04-03T05:22:55;2.33;;;1.33;;
62861;SDS011;48953;53.110;5.592;2023-04-03T05:25:21;3.83;;;1.50;;
62861;SDS011;48953;53.110;5.592;2023-04-03T05:27:47;4.13;;;0.98;;
62861;SDS011;48953;53.110;5.592;2023-04-03T05:30:13;2.95;;;1.20;;
62861;SDS011;48953;53.110;5.592;2023-04-03T05:32:39;2.88;;;1.40;;
62861;SDS011;48953;53.110;5.592;2023-04-03T05:35:06;4.10;;;1.58;;
62861;SDS011;48953;53.110;5.592;2023-04-03T05:37:32;4.25;;;2.03;;
62861;SDS011;48953;53.110;5.592;2023-04-03T05:39:59;2.55;;;1.17;;
62861;SDS011;48953;53.110;5.592;2023-04-03T05:42:25;4.63;;;1.98;;
62861;SDS011;48953;53.110;5.592;2023-04-03T05:44:51;8.40;;;1.33;;
62861;SDS011;48953;53.110;5.592;2023-04-03T05:47:17;5.65;;;1.42;;
62861;SDS011;48953;53.110;5.592;2023-04-03T05:49:43;3.38;;;1.50;;
62861;SDS011;48953;53.110;5.592;2023-04-03T05:52:26;4.18;;;1.50;;
62861;SDS011;48953;53.110;5.592;2023-04-03T05:54:52;3.38;;;1.35;;
62861;SDS011;48953;53.110;5.592;2023-04-03T05:57:18;5.03;;;1.63;;
62861;SDS011;48953;53.110;5.592;2023-04-03T05:59:45;5.80;;;1.42;;
62861;SDS011;48953;53.110;5.592;2023-04-03T06:02:12;3.70;;;1.40;;
62861;SDS011;48953;53.110;5.592;2023-04-03T06:04:38;2.97;;;1.67;;
62861;SDS011;48953;53.110;5.592;2023-04-03T06:07:04;3.38;;;2.15;;
62861;SDS011;48953;53.110;5.592;2023-04-03T06:09:30;4.35;;;1.65;;
62861;SDS011;48953;53.110;5.592;2023-04-03T06:11:57;6.10;;;2.30;;
62861;SDS011;48953;53.110;5.592;2023-04-03T06:14:24;4.00;;;2.20;;
62861;SDS011;48953;53.110;5.592;2023-04-03T06:16:50;3.30;;;1.70;;
62861;SDS011;48953;53.110;5.592;2023-04-03T06:19:16;5.80;;;2.13;;
62861;SDS011;48953;53.110;5.592;2023-04-03T06:21:43;5.32;;;1.92;;
62861;SDS011;48953;53.110;5.592;2023-04-03T06:24:09;6.80;;;1.88;;
62861;SDS011;48953;53.110;5.592;2023-04-03T06:26:35;5.50;;;2.30;;
62861;SDS011;48953;53.110;5.592;2023-04-03T06:29:01;9.57;;;2.03;;
62861;SDS011;48953;53.110;5.592;2023-04-03T06:31:27;2.35;;;1.30;;
62861;SDS011;48953;53.110;5.592;2023-04-03T06:33:53;4.18;;;1.95;;
62861;SDS011;48953;53.110;5.592;2023-04-03T06:36:20;4.75;;;1.88;;
62861;SDS011;48953;53.110;5.592;2023-04-03T06:38:46;3.17;;;1.40;;
62861;SDS011;48953;53.110;5.592;2023-04-03T06:41:12;7.13;;;2.13;;
62861;SDS011;48953;53.110;5.592;2023-04-03T06:43:38;3.40;;;1.65;;
62861;SDS011;48953;53.110;5.592;2023-04-03T06:46:05;3.70;;;2.42;;
62861;SDS011;48953;53.110;5.592;2023-04-03T06:48:31;2.72;;;1.65;;
62861;SDS011;48953;53.110;5.592;2023-04-03T06:50:57;4.65;;;1.95;;
62861;SDS011;48953;53.110;5.592;2023-04-03T06:53:23;3.78;;;1.17;;
62861;SDS011;48953;53.110;5.592;2023-04-03T06:55:49;2.38;;;1.23;;
62861;SDS011;48953;53.110;5.592;2023-04-03T06:58:16;3.50;;;1.77;;
62861;SDS011;48953;53.110;5.592;2023-04-03T07:00:42;2.72;;;1.45;;
62861;SDS011;48953;53.110;5.592;2023-04-03T07:03:08;3.85;;;1.85;;
62861;SDS011;48953;53.110;5.592;2023-04-03T07:05:34;3.80;;;1.67;;
62861;SDS011;48953;53.110;5.592;2023-04-03T07:08:00;5.13;;;2.08;;
62861;SDS011;48953;53.110;5.592;2023-04-03T07:10:26;6.00;;;1.80;;
62861;SDS011;48953;53.110;5.592;2023-04-03T07:12:52;5.78;;;1.63;;
62861;SDS011;48953;53.110;5.592;2023-04-03T07:15:18;5.95;;;2.25;;
62861;SDS011;48953;53.110;5.592;2023-04-03T07:17:44;3.78;;;1.65;;
62861;SDS011;48953;53.110;5.592;2023-04-03T07:20:11;3.25;;;1.60;;
62861;SDS011;48953;53.110;5.592;2023-04-03T07:22:37;4.50;;;1.38;;
62861;SDS011;48953;53.110;5.592;2023-04-03T07:25:03;5.80;;;1.60;;
62861;SDS011;48953;53.110;5.592;2023-04-03T07:27:32;3.15;;;1.75;;
62861;SDS011;48953;53.110;5.592;2023-04-03T07:29:58;7.72;;;1.63;;
62861;SDS011;48953;53.110;5.592;2023-04-03T07:32:24;3.88;;;1.27;;
62861;SDS011;48953;53.110;5.592;2023-04-03T07:34:50;4.28;;;1.20;;
62861;SDS011;48953;53.110;5.592;2023-04-03T07:37:16;2.47;;;1.48;;
62861;SDS011;48953;53.110;5.592;2023-04-03T07:39:43;5.20;;;1.48;;
62861;SDS011;48953;53.110;5.592;2023-04-03T07:42:09;4.88;;;1.63;;
62861;SDS011;48953;53.110;5.592;2023-04-03T07:44:37;6.65;;;2.00;;
62861;SDS011;48953;53.110;5.592;2023-04-03T07:47:03;4.97;;;2.00;;
62861;SDS011;48953;53.110;5.592;2023-04-03T07:49:29;3.58;;;1.50;;
62861;SDS011;48953;53.110;5.592;2023-04-03T07:51:56;4.60;;;1.42;;
62861;SDS011;48953;53.110;5.592;2023-04-03T07:54:22;3.45;;;1.27;;
62861;SDS011;48953;53.110;5.592;2023-04-03T07:56:48;3.28;;;1.30;;
62861;SDS011;48953;53.110;5.592;2023-04-03T07:59:14;3.15;;;1.33;;
62861;SDS011;48953;53.110;5.592;2023-04-03T08:01:40;4.57;;;1.15;;
62861;SDS011;48953;53.110;5.592;2023-04-03T08:04:06;1.65;;;1.27;;
62861;SDS011;48953;53.110;5.592;2023-04-03T08:06:32;3.13;;;1.15;;
62861;SDS011;48953;53.110;5.592;2023-04-03T08:09:01;2.95;;;1.20;;
62861;SDS011;48953;53.110;5.592;2023-04-03T08:11:28;3.95;;;1.48;;
62861;SDS011;48953;53.110;5.592;2023-04-03T08:13:55;5.95;;;1.40;;
62861;SDS011;48953;53.110;5.592;2023-04-03T08:16:21;2.78;;;1.30;;
62861;SDS011;48953;53.110;5.592;2023-04-03T08:18:48;3.25;;;1.27;;
62861;SDS011;48953;53.110;5.592;2023-04-03T08:21:14;2.13;;;1.02;;
62861;SDS011;48953;53.110;5.592;2023-04-03T08:23:40;1.95;;;1.13;;
62861;SDS011;48953;53.110;5.592;2023-04-03T08:26:10;3.67;;;1.42;;
62861;SDS011;48953;53.110;5.592;2023-04-03T08:28:37;3.53;;;1.23;;
62861;SDS011;48953;53.110;5.592;2023-04-03T08:31:04;2.45;;;1.48;;
62861;SDS011;48953;53.110;5.592;2023-04-03T08:33:31;3.63;;;1.27;;
62861;SDS011;48953;53.110;5.592;2023-04-03T08:36:04;2.28;;;1.38;;
62861;SDS011;48953;53.110;5.592;2023-04-03T08:38:41;3.30;;;1.00;;
62861;SDS011;48953;53.110;5.592;2023-04-03T08:46:52;2.63;;;1.20;;
62861;SDS011;48953;53.110;5.592;2023-04-03T08:49:33;2.45;;;1.20;;
62861;SDS011;48953;53.110;5.592;2023-04-03T08:52:01;2.92;;;0.93;;
62861;SDS011;48953;53.110;5.592;2023-04-03T08:54:30;2.25;;;1.10;;
62861;SDS011;48953;53.110;5.592;2023-04-03T08:56:57;1.50;;;0.75;;
62861;SDS011;48953;53.110;5.592;2023-04-03T08:59:29;1.95;;;1.25;;
62861;SDS011;48953;53.110;5.592;2023-04-03T09:01:57;2.80;;;0.88;;
62861;SDS011;48953;53.110;5.592;2023-04-03T09:04:25;2.00;;;1.10;;
62861;SDS011;48953;53.110;5.592;2023-04-03T09:06:53;1.75;;;0.93;;
62861;SDS011;48953;53.110;5.592;2023-04-03T09:14:43;1.13;;;0.90;;
62861;SDS011;48953;53.110;5.592;2023-04-03T09:24:43;1.90;;;0.90;;
62861;SDS011;48953;53.110;5.592;2023-04-03T09:27:11;1.83;;;0.70;;
62861;SDS011;48953;53.110;5.592;2023-04-03T09:29:41;2.35;;;0.80;;
62861;SDS011;48953;53.110;5.592;2023-04-03T09:34:48;1.80;;;0.73;;
62861;SDS011;48953;53.110;5.592;2023-04-03T09:40:01;2.45;;;0.93;;
62861;SDS011;48953;53.110;5.592;2023-04-03T09:42:29;2.08;;;0.90;;
62861;SDS011;48953;53.110;5.592;2023-04-03T09:44:59;2.70;;;0.93;;
62861;SDS011;48953;53.110;5.592;2023-04-03T09:47:36;2.15;;;0.75;;
62861;SDS011;48953;53.110;5.592;2023-04-03T09:52:38;1.95;;;0.75;;
62861;SDS011;48953;53.110;5.592;2023-04-03T09:55:06;0.50;;;0.50;;
62861;SDS011;48953;53.110;5.592;2023-04-03T09:57:33;1.77;;;0.60;;
62861;SDS011;48953;53.110;5.592;2023-04-03T10:00:00;2.03;;;0.70;;
62861;SDS011;48953;53.110;5.592;2023-04-03T10:04:56;0.80;;;0.73;;
62861;SDS011;48953;53.110;5.592;2023-04-03T10:07:26;1.75;;;0.70;;
62861;SDS011;48953;53.110;5.592;2023-04-03T10:10:01;1.27;;;0.52;;
62861;SDS011;48953;53.110;5.592;2023-04-03T10:12:28;2.47;;;0.57;;
62861;SDS011;48953;53.110;5.592;2023-04-03T10:25:03;2.70;;;0.75;;
62861;SDS011;48953;53.110;5.592;2023-04-03T10:30:23;2.05;;;0.63;;
62861;SDS011;48953;53.110;5.592;2023-04-03T10:35:56;1.05;;;0.60;;
62861;SDS011;48953;53.110;5.592;2023-04-03T10:43:33;2.25;;;0.60;;
62861;SDS011;48953;53.110;5.592;2023-04-03T10:46:03;4.43;;;0.70;;
62861;SDS011;48953;53.110;5.592;2023-04-03T10:51:23;1.45;;;0.40;;
62861;SDS011;48953;53.110;5.592;2023-04-03T10:56:42;2.45;;;0.55;;
62861;SDS011;48953;53.110;5.592;2023-04-03T11:01:55;1.23;;;0.50;;
62861;SDS011;48953;53.110;5.592;2023-04-03T11:04:22;1.10;;;0.52;;
62861;SDS011;48953;53.110;5.592;2023-04-03T11:06:53;0.90;;;0.50;;
62861;SDS011;48953;53.110;5.592;2023-04-03T11:09:26;2.30;;;0.63;;
62861;SDS011;48953;53.110;5.592;2023-04-03T11:12:00;1.58;;;0.65;;
62861;SDS011;48953;53.110;5.592;2023-04-03T11:14:28;1.42;;;0.60;;
62861;SDS011;48953;53.110;5.592;2023-04-03T11:19:41;2.08;;;0.80;;
62861;SDS011;48953;53.110;5.592;2023-04-03T11:24:41;0.55;;;0.47;;
62861;SDS011;48953;53.110;5.592;2023-04-03T11:27:16;1.38;;;0.60;;
62861;SDS011;48953;53.110;5.592;2023-04-03T11:29:43;1.92;;;0.50;;
62861;SDS011;48953;53.110;5.592;2023-04-03T11:34:56;1.40;;;0.70;;
62861;SDS011;48953;53.110;5.592;2023-04-03T11:37:34;2.65;;;0.60;;
62861;SDS011;48953;53.110;5.592;2023-04-03T11:40:03;1.27;;;0.55;;
62861;SDS011;48953;53.110;5.592;2023-04-03T11:42:33;1.92;;;0.65;;
62861;SDS011;48953;53.110;5.592;2023-04-03T11:47:48;1.17;;;0.50;;
62861;SDS011;48953;53.110;5.592;2023-04-03T11:53:10;0.75;;;0.55;;
62861;SDS011;48953;53.110;5.592;2023-04-03T11:55:52;2.17;;;0.63;;
62861;SDS011;48953;53.110;5.592;2023-04-03T12:01:04;2.88;;;0.57;;
62861;SDS011;48953;53.110;5.592;2023-04-03T12:21:16;1.55;;;0.57;;
62861;SDS011;48953;53.110;5.592;2023-04-03T12:31:58;1.95;;;0.30;;
62861;SDS011;48953;53.110;5.592;2023-04-03T12:37:03;2.58;;;0.32;;
62861;SDS011;48953;53.110;5.592;2023-04-03T12:39:40;2.25;;;0.50;;
62861;SDS011;48953;53.110;5.592;2023-04-03T12:47:35;0.80;;;0.43;;
62861;SDS011;48953;53.110;5.592;2023-04-03T12:50:03;1.38;;;0.38;;
62861;SDS011;48953;53.110;5.592;2023-04-03T12:52:35;2.42;;;0.60;;
62861;SDS011;48953;53.110;5.592;2023-04-03T12:55:02;1.75;;;0.50;;
62861;SDS011;48953;53.110;5.592;2023-04-03T12:57:29;2.67;;;1.10;;
62861;SDS011;48953;53.110;5.592;2023-04-03T12:59:57;1.40;;;0.70;;
62861;SDS011;48953;53.110;5.592;2023-04-03T13:02:27;1.63;;;0.70;;
62861;SDS011;48953;53.110;5.592;2023-04-03T13:04:54;0.93;;;0.60;;
62861;SDS011;48953;53.110;5.592;2023-04-03T13:07:24;0.45;;;0.38;;
62861;SDS011;48953;53.110;5.592;2023-04-03T13:10:13;1.98;;;0.90;;
62861;SDS011;48953;53.110;5.592;2023-04-03T13:12:48;1.95;;;0.60;;
62861;SDS011;48953;53.110;5.592;2023-04-03T13:17:41;0.45;;;0.45;;
62861;SDS011;48953;53.110;5.592;2023-04-03T13:20:12;1.83;;;0.57;;
62861;SDS011;48953;53.110;5.592;2023-04-03T13:22:48;1.70;;;0.60;;
62861;SDS011;48953;53.110;5.592;2023-04-03T13:25:15;0.98;;;0.40;;
62861;SDS011;48953;53.110;5.592;2023-04-03T13:27:41;3.40;;;0.63;;
62861;SDS011;48953;53.110;5.592;2023-04-03T13:30:19;1.73;;;0.50;;
62861;SDS011;48953;53.110;5.592;2023-04-03T13:32:46;0.98;;;0.60;;
62861;SDS011;48953;53.110;5.592;2023-04-03T13:35:28;1.70;;;0.60;;
62861;SDS011;48953;53.110;5.592;2023-04-03T13:37:56;1.75;;;0.40;;
62861;SDS011;48953;53.110;5.592;2023-04-03T13:40:23;2.30;;;1.02;;
62861;SDS011;48953;53.110;5.592;2023-04-03T13:42:59;1.65;;;0.60;;
62861;SDS011;48953;53.110;5.592;2023-04-03T13:45:26;0.52;;;0.50;;
62861;SDS011;48953;53.110;5.592;2023-04-03T13:47:54;1.25;;;0.70;;
62861;SDS011;48953;53.110;5.592;2023-04-03T13:50:32;3.03;;;1.10;;
62861;SDS011;48953;53.110;5.592;2023-04-03T13:53:02;1.30;;;0.45;;
62861;SDS011;48953;53.110;5.592;2023-04-03T13:55:31;1.58;;;0.60;;
62861;SDS011;48953;53.110;5.592;2023-04-03T13:57:59;2.40;;;0.80;;
62861;SDS011;48953;53.110;5.592;2023-04-03T14:03:02;1.35;;;0.75;;
62861;SDS011;48953;53.110;5.592;2023-04-03T14:05:28;1.00;;;0.65;;
62861;SDS011;48953;53.110;5.592;2023-04-03T14:07:54;1.88;;;0.80;;
62861;SDS011;48953;53.110;5.592;2023-04-03T14:10:20;1.25;;;0.60;;
62861;SDS011;48953;53.110;5.592;2023-04-03T14:12:47;0.95;;;0.75;;
62861;SDS011;48953;53.110;5.592;2023-04-03T14:17:42;2.47;;;0.68;;
62861;SDS011;48953;53.110;5.592;2023-04-03T14:20:19;3.75;;;1.23;;
62861;SDS011;48953;53.110;5.592;2023-04-03T14:22:46;3.80;;;1.20;;
62861;SDS011;48953;53.110;5.592;2023-04-03T14:25:13;4.20;;;0.98;;
62861;SDS011;48953;53.110;5.592;2023-04-03T14:27:41;2.53;;;0.95;;
62861;SDS011;48953;53.110;5.592;2023-04-03T14:30:09;2.22;;;0.93;;
62861;SDS011;48953;53.110;5.592;2023-04-03T14:32:35;1.92;;;0.60;;
62861;SDS011;48953;53.110;5.592;2023-04-03T14:35:01;1.80;;;0.75;;
62861;SDS011;48953;53.110;5.592;2023-04-03T14:37:28;1.20;;;1.10;;
62861;SDS011;48953;53.110;5.592;2023-04-03T14:39:56;2.67;;;1.00;;
62861;SDS011;48953;53.110;5.592;2023-04-03T14:42:24;2.10;;;1.02;;
62861;SDS011;48953;53.110;5.592;2023-04-03T14:44:50;1.45;;;0.90;;
62861;SDS011;48953;53.110;5.592;2023-04-03T14:47:18;1.85;;;0.60;;
62861;SDS011;48953;53.110;5.592;2023-04-03T14:49:45;2.35;;;0.88;;
62861;SDS011;48953;53.110;5.592;2023-04-03T14:52:19;1.42;;;0.80;;
62861;SDS011;48953;53.110;5.592;2023-04-03T14:54:45;1.55;;;0.90;;
62861;SDS011;48953;53.110;5.592;2023-04-03T14:57:12;1.30;;;0.85;;
62861;SDS011;48953;53.110;5.592;2023-04-03T14:59:39;3.47;;;1.00;;
62861;SDS011;48953;53.110;5.592;2023-04-03T15:02:20;2.42;;;1.00;;
62861;SDS011;48953;53.110;5.592;2023-04-03T15:04:48;2.15;;;0.85;;
62861;SDS011;48953;53.110;5.592;2023-04-03T15:07:14;2.58;;;1.00;;
62861;SDS011;48953;53.110;5.592;2023-04-03T15:09:40;2.55;;;0.70;;
62861;SDS011;48953;53.110;5.592;2023-04-03T15:12:07;1.75;;;0.77;;
62861;SDS011;48953;53.110;5.592;2023-04-03T15:14:33;2.10;;;0.90;;
62861;SDS011;48953;53.110;5.592;2023-04-03T15:16:59;3.22;;;0.80;;
62861;SDS011;48953;53.110;5.592;2023-04-03T15:19:25;2.65;;;0.82;;
62861;SDS011;48953;53.110;5.592;2023-04-03T15:21:51;2.42;;;1.00;;
62861;SDS011;48953;53.110;5.592;2023-04-03T15:24:17;2.20;;;0.90;;
62861;SDS011;48953;53.110;5.592;2023-04-03T15:26:43;2.90;;;0.75;;
62861;SDS011;48953;53.110;5.592;2023-04-03T15:29:09;2.10;;;0.73;;
62861;SDS011;48953;53.110;5.592;2023-04-03T15:31:36;2.75;;;0.80;;
62861;SDS011;48953;53.110;5.592;2023-04-03T15:34:02;1.42;;;0.90;;
62861;SDS011;48953;53.110;5.592;2023-04-03T15:36:28;3.53;;;0.88;;
62861;SDS011;48953;53.110;5.592;2023-04-03T15:38:54;2.20;;;0.90;;
62861;SDS011;48953;53.110;5.592;2023-04-03T15:41:20;1.98;;;0.85;;
62861;SDS011;48953;53.110;5.592;2023-04-03T15:43:46;2.35;;;0.70;;
62861;SDS011;48953;53.110;5.592;2023-04-03T15:46:12;1.73;;;0.60;;
62861;SDS011;48953;53.110;5.592;2023-04-03T15:48:38;1.45;;;0.65;;
62861;SDS011;48953;53.110;5.592;2023-04-03T15:51:05;1.20;;;0.57;;
62861;SDS011;48953;53.110;5.592;2023-04-03T15:53:31;2.00;;;0.90;;
62861;SDS011;48953;53.110;5.592;2023-04-03T15:55:57;2.75;;;0.75;;
62861;SDS011;48953;53.110;5.592;2023-04-03T15:58:23;2.25;;;0.80;;
62861;SDS011;48953;53.110;5.592;2023-04-03T16:00:50;4.25;;;0.85;;
62861;SDS011;48953;53.110;5.592;2023-04-03T16:03:17;2.45;;;0.90;;
62861;SDS011;48953;53.110;5.592;2023-04-03T16:05:44;4.18;;;0.90;;
62861;SDS011;48953;53.110;5.592;2023-04-03T16:08:10;2.88;;;1.02;;
62861;SDS011;48953;53.110;5.592;2023-04-03T16:10:36;3.08;;;0.90;;
62861;SDS011;48953;53.110;5.592;2023-04-03T16:13:03;4.40;;;1.42;;
62861;SDS011;48953;53.110;5.592;2023-04-03T16:15:29;3.30;;;1.45;;
62861;SDS011;48953;53.110;5.592;2023-04-03T16:17:55;2.42;;;0.95;;
62861;SDS011;48953;53.110;5.592;2023-04-03T16:20:21;2.28;;;1.02;;
62861;SDS011;48953;53.110;5.592;2023-04-03T16:22:48;2.50;;;0.88;;
62861;SDS011;48953;53.110;5.592;2023-04-03T16:25:14;2.42;;;1.10;;
62861;SDS011;48953;53.110;5.592;2023-04-03T16:27:40;3.42;;;1.35;;
62861;SDS011;48953;53.110;5.592;2023-04-03T16:30:07;1.20;;;0.75;;
62861;SDS011;48953;53.110;5.592;2023-04-03T16:32:33;1.45;;;0.47;;
62861;SDS011;48953;53.110;5.592;2023-04-03T16:34:59;2.25;;;0.60;;
62861;SDS011;48953;53.110;5.592;2023-04-03T16:37:26;1.20;;;0.70;;
62861;SDS011;48953;53.110;5.592;2023-04-03T16:39:52;1.13;;;0.70;;
62861;SDS011;48953;53.110;5.592;2023-04-03T16:42:18;2.38;;;0.70;;
62861;SDS011;48953;53.110;5.592;2023-04-03T16:44:44;2.22;;;0.60;;
62861;SDS011;48953;53.110;5.592;2023-04-03T16:47:10;2.58;;;0.90;;
62861;SDS011;48953;53.110;5.592;2023-04-03T16:49:38;3.47;;;1.40;;
62861;SDS011;48953;53.110;5.592;2023-04-03T16:52:04;4.80;;;1.70;;
62861;SDS011;48953;53.110;5.592;2023-04-03T16:54:31;3.35;;;1.38;;
62861;SDS011;48953;53.110;5.592;2023-04-03T16:56:57;4.75;;;1.45;;